sensor_id;sensor_type;location;lat;lon;timestamp;P1;durP1;ratioP1;P2;durP2;ratioP2
44126;SDS011;29786;50.798;7.302;2023-10-13T00:00:48;9.3;;;5.7;;
44126;SDS011;29786;50.798;7.302;2023-10-13T00:01:48;8.5;;;5.3;;
44126;SDS011;29786;50.798;7.302;2023-10-13T00:02:48;9.7;;;5.6;;
44126;SDS011;29786;50.798;7.302;2023-10-13T00:03:49;10.8;;;6.1;;
44126;SDS011;29786;50.798;7.302;2023-10-13T00:04:48;10.7;;;5.7;;
44126;SDS011;29786;50.798;7.302;2023-10-13T00:05:48;10.7;;;5.7;;
44126;SDS011;29786;50.798;7.302;2023-10-13T00:06:48;9.3;;;5.7;;
44126;SDS011;29786;50.798;7.302;2023-10-13T00:07:48;9;;;5.9;;
44126;SDS011;29786;50.798;7.302;2023-10-13T00:08:48;9;;;5.9;;
44126;SDS011;29786;50.798;7.302;2023-10-13T00:09:48;8;;;5.6;;
44126;SDS011;29786;50.798;7.302;2023-10-13T00:10:48;8.9;;;5.8;;
44126;SDS011;29786;50.798;7.302;2023-10-13T00:11:48;10.6;;;5.4;;
44126;SDS011;29786;50.798;7.302;2023-10-13T00:12:48;11.1;;;6.1;;
44126;SDS011;29786;50.798;7.302;2023-10-13T00:13:48;10.1;;;5.6;;
44126;SDS011;29786;50.798;7.302;2023-10-13T00:14:48;9.6;;;5.9;;
44126;SDS011;29786;50.798;7.302;2023-10-13T00:15:48;8.3;;;5.7;;
44126;SDS011;29786;50.798;7.302;2023-10-13T00:16:48;8.3;;;5.7;;
44126;SDS011;29786;50.798;7.302;2023-10-13T00:17:48;10;;;5.9;;
44126;SDS011;29786;50.798;7.302;2023-10-13T00:18:49;11.6;;;6;;
44126;SDS011;29786;50.798;7.302;2023-10-13T00:19:48;11.6;;;6;;
44126;SDS011;29786;50.798;7.302;2023-10-13T00:20:48;10.1;;;6.2;;
44126;SDS011;29786;50.798;7.302;2023-10-13T00:21:48;8;;;5.8;;
44126;SDS011;29786;50.798;7.302;2023-10-13T00:22:48;11.1;;;6.1;;
44126;SDS011;29786;50.798;7.302;2023-10-13T00:23:48;11.1;;;6.1;;
44126;SDS011;29786;50.798;7.302;2023-10-13T00:24:48;10.3;;;5.7;;
44126;SDS011;29786;50.798;7.302;2023-10-13T00:25:49;9.3;;;6;;
44126;SDS011;29786;50.798;7.302;2023-10-13T00:26:48;9.4;;;5.4;;
44126;SDS011;29786;50.798;7.302;2023-10-13T00:27:48;9.1;;;5.4;;
44126;SDS011;29786;50.798;7.302;2023-10-13T00:28:48;8.8;;;5.5;;
44126;SDS011;29786;50.798;7.302;2023-10-13T00:29:48;9.8;;;5.4;;
44126;SDS011;29786;50.798;7.302;2023-10-13T00:30:49;9.2;;;5.6;;
44126;SDS011;29786;50.798;7.302;2023-10-13T00:31:48;9.2;;;5.6;;
44126;SDS011;29786;50.798;7.302;2023-10-13T00:32:49;9.2;;;5.6;;
44126;SDS011;29786;50.798;7.302;2023-10-13T00:33:48;7.3;;;5.3;;
44126;SDS011;29786;50.798;7.302;2023-10-13T00:34:48;9.1;;;5.7;;
44126;SDS011;29786;50.798;7.302;2023-10-13T00:35:49;9.1;;;4.8;;
44126;SDS011;29786;50.798;7.302;2023-10-13T00:36:48;9.1;;;4.8;;
44126;SDS011;29786;50.798;7.302;2023-10-13T00:37:48;9.1;;;5.6;;
44126;SDS011;29786;50.798;7.302;2023-10-13T00:38:48;8.2;;;5.1;;
44126;SDS011;29786;50.798;7.302;2023-10-13T00:39:48;8.2;;;5.1;;
44126;SDS011;29786;50.798;7.302;2023-10-13T00:40:48;7;;;5.2;;
44126;SDS011;29786;50.798;7.302;2023-10-13T00:41:48;12.9;;;5.6;;
44126;SDS011;29786;50.798;7.302;2023-10-13T00:42:48;8;;;5.3;;
44126;SDS011;29786;50.798;7.302;2023-10-13T00:43:48;10.5;;;5.8;;
44126;SDS011;29786;50.798;7.302;2023-10-13T00:44:48;8.2;;;5.2;;
44126;SDS011;29786;50.798;7.302;2023-10-13T00:45:56;8.3;;;5.5;;
44126;SDS011;29786;50.798;7.302;2023-10-13T00:46:48;9.4;;;5.9;;
44126;SDS011;29786;50.798;7.302;2023-10-13T00:47:48;9.4;;;5.9;;
44126;SDS011;29786;50.798;7.302;2023-10-13T00:48:48;10.9;;;5.5;;
44126;SDS011;29786;50.798;7.302;2023-10-13T00:49:48;10.1;;;5.4;;
44126;SDS011;29786;50.798;7.302;2023-10-13T00:50:48;7.2;;;5.8;;
44126;SDS011;29786;50.798;7.302;2023-10-13T00:51:49;11.5;;;5.7;;
44126;SDS011;29786;50.798;7.302;2023-10-13T00:52:48;11.5;;;5.7;;
44126;SDS011;29786;50.798;7.302;2023-10-13T00:53:48;8.8;;;5.8;;
44126;SDS011;29786;50.798;7.302;2023-10-13T00:54:48;9.7;;;5.5;;
44126;SDS011;29786;50.798;7.302;2023-10-13T00:55:48;9.7;;;5.5;;
44126;SDS011;29786;50.798;7.302;2023-10-13T00:56:48;7.9;;;5.4;;
44126;SDS011;29786;50.798;7.302;2023-10-13T00:57:51;9;;;5.3;;
44126;SDS011;29786;50.798;7.302;2023-10-13T00:58:48;12.2;;;5.8;;
44126;SDS011;29786;50.798;7.302;2023-10-13T00:59:48;10.4;;;6;;
44126;SDS011;29786;50.798;7.302;2023-10-13T01:00:50;10.4;;;6;;
44126;SDS011;29786;50.798;7.302;2023-10-13T01:01:49;9.2;;;5.6;;
44126;SDS011;29786;50.798;7.302;2023-10-13T01:02:49;8.2;;;5.5;;
44126;SDS011;29786;50.798;7.302;2023-10-13T01:03:49;8.2;;;5.5;;
44126;SDS011;29786;50.798;7.302;2023-10-13T01:04:48;8.2;;;5.5;;
44126;SDS011;29786;50.798;7.302;2023-10-13T01:05:48;9.6;;;6;;
44126;SDS011;29786;50.798;7.302;2023-10-13T01:06:48;9.9;;;5.5;;
44126;SDS011;29786;50.798;7.302;2023-10-13T01:07:49;9.9;;;6.1;;
44126;SDS011;29786;50.798;7.302;2023-10-13T01:08:48;8.9;;;5.9;;
44126;SDS011;29786;50.798;7.302;2023-10-13T01:09:48;9.8;;;5.9;;
44126;SDS011;29786;50.798;7.302;2023-10-13T01:10:48;9.8;;;5.9;;
44126;SDS011;29786;50.798;7.302;2023-10-13T01:11:49;10.6;;;6.1;;
44126;SDS011;29786;50.798;7.302;2023-10-13T01:12:48;8.5;;;5.2;;
44126;SDS011;29786;50.798;7.302;2023-10-13T01:13:48;7.6;;;5.2;;
44126;SDS011;29786;50.798;7.302;2023-10-13T01:14:48;7.6;;;5.2;;
44126;SDS011;29786;50.798;7.302;2023-10-13T01:15:48;7.3;;;5.3;;
44126;SDS011;29786;50.798;7.302;2023-10-13T01:16:49;9.3;;;5.6;;
44126;SDS011;29786;50.798;7.302;2023-10-13T01:17:48;10.1;;;6.1;;
44126;SDS011;29786;50.798;7.302;2023-10-13T01:18:49;10.1;;;6.1;;
44126;SDS011;29786;50.798;7.302;2023-10-13T01:19:48;5.9;;;5.3;;
44126;SDS011;29786;50.798;7.302;2023-10-13T01:20:48;8.3;;;5.7;;
44126;SDS011;29786;50.798;7.302;2023-10-13T01:21:48;9.6;;;5.8;;
44126;SDS011;29786;50.798;7.302;2023-10-13T01:22:48;9.1;;;5.7;;
44126;SDS011;29786;50.798;7.302;2023-10-13T01:23:48;7.5;;;5.6;;
44126;SDS011;29786;50.798;7.302;2023-10-13T01:24:48;10.5;;;6.1;;
44126;SDS011;29786;50.798;7.302;2023-10-13T01:25:48;10.7;;;5.9;;
44126;SDS011;29786;50.798;7.302;2023-10-13T01:26:48;10.7;;;5.9;;
44126;SDS011;29786;50.798;7.302;2023-10-13T01:27:48;7.8;;;5.7;;
44126;SDS011;29786;50.798;7.302;2023-10-13T01:28:48;7.8;;;5.7;;
44126;SDS011;29786;50.798;7.302;2023-10-13T01:29:48;8;;;5.7;;
44126;SDS011;29786;50.798;7.302;2023-10-13T01:30:48;10;;;6.2;;
44126;SDS011;29786;50.798;7.302;2023-10-13T01:31:48;10.1;;;6.4;;
44126;SDS011;29786;50.798;7.302;2023-10-13T01:32:49;8.7;;;5.5;;
44126;SDS011;29786;50.798;7.302;2023-10-13T01:33:48;10;;;5.9;;
44126;SDS011;29786;50.798;7.302;2023-10-13T01:34:48;10;;;5.9;;
44126;SDS011;29786;50.798;7.302;2023-10-13T01:35:48;9.6;;;6.2;;
44126;SDS011;29786;50.798;7.302;2023-10-13T01:36:51;11.2;;;5.9;;
44126;SDS011;29786;50.798;7.302;2023-10-13T01:37:48;9.3;;;5.8;;
44126;SDS011;29786;50.798;7.302;2023-10-13T01:38:48;10;;;6.3;;
44126;SDS011;29786;50.798;7.302;2023-10-13T01:39:48;10;;;6.3;;
44126;SDS011;29786;50.798;7.302;2023-10-13T01:40:48;7.6;;;6.4;;
44126;SDS011;29786;50.798;7.302;2023-10-13T01:41:48;10.3;;;6.3;;
44126;SDS011;29786;50.798;7.302;2023-10-13T01:42:48;10.3;;;6.3;;
44126;SDS011;29786;50.798;7.302;2023-10-13T01:43:48;9.9;;;5.8;;
44126;SDS011;29786;50.798;7.302;2023-10-13T01:44:48;12.4;;;6.6;;
44126;SDS011;29786;50.798;7.302;2023-10-13T01:45:48;9.8;;;6.4;;
44126;SDS011;29786;50.798;7.302;2023-10-13T01:46:48;8.7;;;6.2;;
44126;SDS011;29786;50.798;7.302;2023-10-13T01:47:48;11.8;;;6.2;;
44126;SDS011;29786;50.798;7.302;2023-10-13T01:48:48;11.7;;;6.6;;
44126;SDS011;29786;50.798;7.302;2023-10-13T01:49:49;10.6;;;6.5;;
44126;SDS011;29786;50.798;7.302;2023-10-13T01:50:48;10.6;;;6.5;;
44126;SDS011;29786;50.798;7.302;2023-10-13T01:51:48;11.8;;;6.6;;
44126;SDS011;29786;50.798;7.302;2023-10-13T01:52:48;11.4;;;6.8;;
44126;SDS011;29786;50.798;7.302;2023-10-13T01:53:48;11.4;;;6.8;;
44126;SDS011;29786;50.798;7.302;2023-10-13T01:54:48;10.8;;;6.9;;
44126;SDS011;29786;50.798;7.302;2023-10-13T01:55:48;10.2;;;6.5;;
44126;SDS011;29786;50.798;7.302;2023-10-13T01:56:48;10.2;;;6.8;;
44126;SDS011;29786;50.798;7.302;2023-10-13T01:57:48;10.2;;;6.8;;
44126;SDS011;29786;50.798;7.302;2023-10-13T01:58:48;9.9;;;5.8;;
44126;SDS011;29786;50.798;7.302;2023-10-13T01:59:48;11.7;;;7.1;;
44126;SDS011;29786;50.798;7.302;2023-10-13T02:00:48;10.4;;;6.8;;
44126;SDS011;29786;50.798;7.302;2023-10-13T02:01:48;10.7;;;6.6;;
44126;SDS011;29786;50.798;7.302;2023-10-13T02:02:48;10.1;;;6.8;;
44126;SDS011;29786;50.798;7.302;2023-10-13T02:03:48;10;;;6.9;;
44126;SDS011;29786;50.798;7.302;2023-10-13T02:04:48;8.6;;;6.3;;
44126;SDS011;29786;50.798;7.302;2023-10-13T02:05:49;8.6;;;6.3;;
44126;SDS011;29786;50.798;7.302;2023-10-13T02:06:48;12.2;;;7.1;;
44126;SDS011;29786;50.798;7.302;2023-10-13T02:07:48;12.6;;;6.9;;
44126;SDS011;29786;50.798;7.302;2023-10-13T02:10:50;10.6;;;6.5;;
44126;SDS011;29786;50.798;7.302;2023-10-13T02:11:48;8.1;;;6;;
44126;SDS011;29786;50.798;7.302;2023-10-13T02:12:48;9.9;;;6.6;;
44126;SDS011;29786;50.798;7.302;2023-10-13T02:13:48;9.9;;;6.6;;
44126;SDS011;29786;50.798;7.302;2023-10-13T02:14:48;11;;;6.8;;
44126;SDS011;29786;50.798;7.302;2023-10-13T02:15:49;9.5;;;6.5;;
44126;SDS011;29786;50.798;7.302;2023-10-13T02:16:48;10.8;;;6.9;;
44126;SDS011;29786;50.798;7.302;2023-10-13T02:17:48;12.2;;;6.9;;
44126;SDS011;29786;50.798;7.302;2023-10-13T02:18:48;12.2;;;6.9;;
44126;SDS011;29786;50.798;7.302;2023-10-13T02:19:48;10.3;;;7;;
44126;SDS011;29786;50.798;7.302;2023-10-13T02:20:48;10.6;;;7.1;;
44126;SDS011;29786;50.798;7.302;2023-10-13T02:21:48;10.6;;;7.1;;
44126;SDS011;29786;50.798;7.302;2023-10-13T02:22:48;16;;;7.7;;
44126;SDS011;29786;50.798;7.302;2023-10-13T02:23:48;13.6;;;7.6;;
44126;SDS011;29786;50.798;7.302;2023-10-13T02:24:48;12.5;;;7.7;;
44126;SDS011;29786;50.798;7.302;2023-10-13T02:25:48;12.7;;;8.2;;
44126;SDS011;29786;50.798;7.302;2023-10-13T02:26:48;10.9;;;7;;
44126;SDS011;29786;50.798;7.302;2023-10-13T02:27:48;11.7;;;7.5;;
44126;SDS011;29786;50.798;7.302;2023-10-13T02:28:48;13.9;;;8.2;;
44126;SDS011;29786;50.798;7.302;2023-10-13T02:29:50;13.9;;;8.2;;
44126;SDS011;29786;50.798;7.302;2023-10-13T02:30:48;14.8;;;7.7;;
44126;SDS011;29786;50.798;7.302;2023-10-13T02:31:48;12.5;;;7.7;;
44126;SDS011;29786;50.798;7.302;2023-10-13T02:32:48;10.5;;;7.4;;
44126;SDS011;29786;50.798;7.302;2023-10-13T02:33:48;12.6;;;7.4;;
44126;SDS011;29786;50.798;7.302;2023-10-13T02:34:48;12.8;;;7.5;;
44126;SDS011;29786;50.798;7.302;2023-10-13T02:35:48;12.2;;;7.9;;
44126;SDS011;29786;50.798;7.302;2023-10-13T02:36:48;12.2;;;7.9;;
44126;SDS011;29786;50.798;7.302;2023-10-13T02:37:48;12.6;;;7.7;;
44126;SDS011;29786;50.798;7.302;2023-10-13T02:38:49;13.2;;;7.5;;
44126;SDS011;29786;50.798;7.302;2023-10-13T02:39:48;14.1;;;8.6;;
44126;SDS011;29786;50.798;7.302;2023-10-13T02:40:48;13.7;;;8.5;;
44126;SDS011;29786;50.798;7.302;2023-10-13T02:41:48;13.6;;;9.1;;
44126;SDS011;29786;50.798;7.302;2023-10-13T02:42:48;12.1;;;9;;
44126;SDS011;29786;50.798;7.302;2023-10-13T02:43:48;15.3;;;7.9;;
44126;SDS011;29786;50.798;7.302;2023-10-13T02:44:49;15.3;;;7.9;;
44126;SDS011;29786;50.798;7.302;2023-10-13T02:45:52;15.5;;;9.5;;
44126;SDS011;29786;50.798;7.302;2023-10-13T02:46:48;13.7;;;8.3;;
44126;SDS011;29786;50.798;7.302;2023-10-13T02:47:48;12;;;8.4;;
44126;SDS011;29786;50.798;7.302;2023-10-13T02:48:48;15.8;;;9.1;;
44126;SDS011;29786;50.798;7.302;2023-10-13T02:49:48;13.6;;;10;;
44126;SDS011;29786;50.798;7.302;2023-10-13T02:50:54;12.3;;;8.6;;
44126;SDS011;29786;50.798;7.302;2023-10-13T02:51:48;14.2;;;9.1;;
44126;SDS011;29786;50.798;7.302;2023-10-13T02:52:48;14.2;;;9.1;;
44126;SDS011;29786;50.798;7.302;2023-10-13T02:53:48;17.9;;;9.6;;
44126;SDS011;29786;50.798;7.302;2023-10-13T02:54:48;17.9;;;9.6;;
44126;SDS011;29786;50.798;7.302;2023-10-13T02:55:50;14.3;;;9;;
44126;SDS011;29786;50.798;7.302;2023-10-13T02:56:48;19.4;;;10.6;;
44126;SDS011;29786;50.798;7.302;2023-10-13T02:57:48;15.5;;;9.2;;
44126;SDS011;29786;50.798;7.302;2023-10-13T02:58:49;14.4;;;9.1;;
44126;SDS011;29786;50.798;7.302;2023-10-13T02:59:48;14;;;9;;
44126;SDS011;29786;50.798;7.302;2023-10-13T03:00:48;14;;;9;;
44126;SDS011;29786;50.798;7.302;2023-10-13T03:01:48;13.9;;;8.9;;
44126;SDS011;29786;50.798;7.302;2023-10-13T03:02:48;16.6;;;10.5;;
44126;SDS011;29786;50.798;7.302;2023-10-13T03:03:49;16.3;;;9.8;;
44126;SDS011;29786;50.798;7.302;2023-10-13T03:04:49;13.9;;;9.5;;
44126;SDS011;29786;50.798;7.302;2023-10-13T03:05:48;13.9;;;9.5;;
44126;SDS011;29786;50.798;7.302;2023-10-13T03:06:48;15.1;;;10.5;;
44126;SDS011;29786;50.798;7.302;2023-10-13T03:07:48;16;;;9.8;;
44126;SDS011;29786;50.798;7.302;2023-10-13T03:08:48;16;;;9.8;;
44126;SDS011;29786;50.798;7.302;2023-10-13T03:09:49;16.5;;;10.4;;
44126;SDS011;29786;50.798;7.302;2023-10-13T03:10:48;15.6;;;9.2;;
44126;SDS011;29786;50.798;7.302;2023-10-13T03:11:48;13;;;9.6;;
44126;SDS011;29786;50.798;7.302;2023-10-13T03:12:48;12;;;9.5;;
44126;SDS011;29786;50.798;7.302;2023-10-13T03:13:48;13.9;;;9.8;;
44126;SDS011;29786;50.798;7.302;2023-10-13T03:14:48;15.3;;;10;;
44126;SDS011;29786;50.798;7.302;2023-10-13T03:15:48;14.3;;;10.1;;
44126;SDS011;29786;50.798;7.302;2023-10-13T03:16:48;14.3;;;10.1;;
44126;SDS011;29786;50.798;7.302;2023-10-13T03:17:48;14.8;;;10.2;;
44126;SDS011;29786;50.798;7.302;2023-10-13T03:18:48;15.2;;;9.7;;
44126;SDS011;29786;50.798;7.302;2023-10-13T03:19:48;16.9;;;9.6;;
44126;SDS011;29786;50.798;7.302;2023-10-13T03:20:48;16.9;;;9.6;;
44126;SDS011;29786;50.798;7.302;2023-10-13T03:21:48;13.8;;;9.2;;
44126;SDS011;29786;50.798;7.302;2023-10-13T03:22:48;13.7;;;9.1;;
44126;SDS011;29786;50.798;7.302;2023-10-13T03:23:48;13.7;;;9.1;;
44126;SDS011;29786;50.798;7.302;2023-10-13T03:24:48;14.9;;;9.4;;
44126;SDS011;29786;50.798;7.302;2023-10-13T03:25:48;14.8;;;9;;
44126;SDS011;29786;50.798;7.302;2023-10-13T03:26:48;12.2;;;8.8;;
44126;SDS011;29786;50.798;7.302;2023-10-13T03:27:48;12.2;;;8.8;;
44126;SDS011;29786;50.798;7.302;2023-10-13T03:28:48;12.6;;;9.4;;
44126;SDS011;29786;50.798;7.302;2023-10-13T03:29:48;15.1;;;9.3;;
44126;SDS011;29786;50.798;7.302;2023-10-13T03:30:48;14.3;;;8.9;;
44126;SDS011;29786;50.798;7.302;2023-10-13T03:31:48;14.3;;;8.9;;
44126;SDS011;29786;50.798;7.302;2023-10-13T03:32:48;14.9;;;8.4;;
44126;SDS011;29786;50.798;7.302;2023-10-13T03:33:48;14.4;;;9.2;;
44126;SDS011;29786;50.798;7.302;2023-10-13T03:34:48;14.7;;;9.9;;
44126;SDS011;29786;50.798;7.302;2023-10-13T03:35:48;16.4;;;9.8;;
44126;SDS011;29786;50.798;7.302;2023-10-13T03:36:48;15.3;;;9.3;;
44126;SDS011;29786;50.798;7.302;2023-10-13T03:37:48;18.9;;;9.9;;
44126;SDS011;29786;50.798;7.302;2023-10-13T03:38:48;18.4;;;9.2;;
44126;SDS011;29786;50.798;7.302;2023-10-13T03:39:48;18.4;;;9.2;;
44126;SDS011;29786;50.798;7.302;2023-10-13T03:40:49;14.5;;;9.5;;
44126;SDS011;29786;50.798;7.302;2023-10-13T03:41:48;17.7;;;9.4;;
44126;SDS011;29786;50.798;7.302;2023-10-13T03:42:49;14.9;;;9.8;;
44126;SDS011;29786;50.798;7.302;2023-10-13T03:43:48;17.6;;;10;;
44126;SDS011;29786;50.798;7.302;2023-10-13T03:44:48;14.4;;;9.7;;
44126;SDS011;29786;50.798;7.302;2023-10-13T03:45:49;14.2;;;9.6;;
44126;SDS011;29786;50.798;7.302;2023-10-13T03:46:48;14.5;;;9.7;;
44126;SDS011;29786;50.798;7.302;2023-10-13T03:47:48;14.5;;;9.7;;
44126;SDS011;29786;50.798;7.302;2023-10-13T03:48:48;18;;;9.7;;
44126;SDS011;29786;50.798;7.302;2023-10-13T03:49:48;22;;;10.5;;
44126;SDS011;29786;50.798;7.302;2023-10-13T03:50:48;14.7;;;9.5;;
44126;SDS011;29786;50.798;7.302;2023-10-13T03:51:48;14.5;;;10.1;;
44126;SDS011;29786;50.798;7.302;2023-10-13T03:52:48;14.5;;;10.1;;
44126;SDS011;29786;50.798;7.302;2023-10-13T03:53:48;16.1;;;10.8;;
44126;SDS011;29786;50.798;7.302;2023-10-13T03:54:48;17.1;;;10.2;;
44126;SDS011;29786;50.798;7.302;2023-10-13T03:55:48;17.1;;;10.2;;
44126;SDS011;29786;50.798;7.302;2023-10-13T03:56:48;15;;;9.5;;
44126;SDS011;29786;50.798;7.302;2023-10-13T03:57:48;14.2;;;8.6;;
44126;SDS011;29786;50.798;7.302;2023-10-13T03:58:48;14.3;;;9.3;;
44126;SDS011;29786;50.798;7.302;2023-10-13T03:59:48;16.4;;;9.9;;
44126;SDS011;29786;50.798;7.302;2023-10-13T04:00:48;13.3;;;9.4;;
44126;SDS011;29786;50.798;7.302;2023-10-13T04:01:48;15.5;;;9.9;;
44126;SDS011;29786;50.798;7.302;2023-10-13T04:02:48;18.5;;;10;;
44126;SDS011;29786;50.798;7.302;2023-10-13T04:03:48;18.5;;;10;;
44126;SDS011;29786;50.798;7.302;2023-10-13T04:04:48;16.6;;;9.3;;
44126;SDS011;29786;50.798;7.302;2023-10-13T04:05:48;18;;;9.7;;
44126;SDS011;29786;50.798;7.302;2023-10-13T04:06:48;14.3;;;9.2;;
44126;SDS011;29786;50.798;7.302;2023-10-13T04:07:48;12.6;;;8.6;;
44126;SDS011;29786;50.798;7.302;2023-10-13T04:08:48;13.1;;;9;;
44126;SDS011;29786;50.798;7.302;2023-10-13T04:09:48;14.9;;;9.1;;
44126;SDS011;29786;50.798;7.302;2023-10-13T04:10:48;14.9;;;9.1;;
44126;SDS011;29786;50.798;7.302;2023-10-13T04:11:48;14;;;9.3;;
44126;SDS011;29786;50.798;7.302;2023-10-13T04:12:48;16.3;;;9.5;;
44126;SDS011;29786;50.798;7.302;2023-10-13T04:13:48;16.5;;;9;;
44126;SDS011;29786;50.798;7.302;2023-10-13T04:14:48;16.5;;;9;;
44126;SDS011;29786;50.798;7.302;2023-10-13T04:15:48;13.7;;;8.9;;
44126;SDS011;29786;50.798;7.302;2023-10-13T04:16:48;13;;;9;;
44126;SDS011;29786;50.798;7.302;2023-10-13T04:17:48;15.2;;;9.6;;
44126;SDS011;29786;50.798;7.302;2023-10-13T04:18:49;15.2;;;9.6;;
44126;SDS011;29786;50.798;7.302;2023-10-13T04:19:49;13.1;;;9.4;;
44126;SDS011;29786;50.798;7.302;2023-10-13T04:20:52;16.3;;;9.6;;
44126;SDS011;29786;50.798;7.302;2023-10-13T04:21:49;12.7;;;8.8;;
44126;SDS011;29786;50.798;7.302;2023-10-13T04:22:48;14;;;9;;
44126;SDS011;29786;50.798;7.302;2023-10-13T04:23:48;15.5;;;9.2;;
44126;SDS011;29786;50.798;7.302;2023-10-13T04:24:48;14.2;;;8.8;;
44126;SDS011;29786;50.798;7.302;2023-10-13T04:25:48;15.9;;;8.8;;
44126;SDS011;29786;50.798;7.302;2023-10-13T04:26:49;15.9;;;8.8;;
44126;SDS011;29786;50.798;7.302;2023-10-13T04:27:48;15.3;;;9.6;;
44126;SDS011;29786;50.798;7.302;2023-10-13T04:28:48;15.3;;;9.6;;
44126;SDS011;29786;50.798;7.302;2023-10-13T04:29:49;14.3;;;9.6;;
44126;SDS011;29786;50.798;7.302;2023-10-13T04:30:49;16.7;;;8.7;;
44126;SDS011;29786;50.798;7.302;2023-10-13T04:31:48;13.6;;;8.9;;
44126;SDS011;29786;50.798;7.302;2023-10-13T04:32:49;14.2;;;10.2;;
44126;SDS011;29786;50.798;7.302;2023-10-13T04:33:48;18.4;;;9.8;;
44126;SDS011;29786;50.798;7.302;2023-10-13T04:34:48;18.4;;;9.8;;
44126;SDS011;29786;50.798;7.302;2023-10-13T04:35:48;16.8;;;9;;
44126;SDS011;29786;50.798;7.302;2023-10-13T04:36:48;12.6;;;8.6;;
44126;SDS011;29786;50.798;7.302;2023-10-13T04:37:48;12.7;;;9.1;;
44126;SDS011;29786;50.798;7.302;2023-10-13T04:38:49;14.9;;;8.8;;
44126;SDS011;29786;50.798;7.302;2023-10-13T04:39:48;11.4;;;8;;
44126;SDS011;29786;50.798;7.302;2023-10-13T04:40:48;14.6;;;9.2;;
44126;SDS011;29786;50.798;7.302;2023-10-13T04:41:48;17.4;;;9.4;;
44126;SDS011;29786;50.798;7.302;2023-10-13T04:42:48;17.4;;;9.4;;
44126;SDS011;29786;50.798;7.302;2023-10-13T04:43:48;16;;;9.1;;
44126;SDS011;29786;50.798;7.302;2023-10-13T04:44:48;13.5;;;9.3;;
44126;SDS011;29786;50.798;7.302;2023-10-13T04:45:48;13.4;;;9;;
44126;SDS011;29786;50.798;7.302;2023-10-13T04:46:48;12.5;;;9.1;;
44126;SDS011;29786;50.798;7.302;2023-10-13T04:47:48;13.9;;;9.4;;
44126;SDS011;29786;50.798;7.302;2023-10-13T04:48:48;16.1;;;9.9;;
44126;SDS011;29786;50.798;7.302;2023-10-13T04:49:48;16.1;;;9.9;;
44126;SDS011;29786;50.798;7.302;2023-10-13T04:50:48;15.9;;;9.6;;
44126;SDS011;29786;50.798;7.302;2023-10-13T04:51:48;17.2;;;9.8;;
44126;SDS011;29786;50.798;7.302;2023-10-13T04:52:48;15.5;;;9.4;;
44126;SDS011;29786;50.798;7.302;2023-10-13T04:53:48;15.5;;;9.4;;
44126;SDS011;29786;50.798;7.302;2023-10-13T04:54:48;13.6;;;9.2;;
44126;SDS011;29786;50.798;7.302;2023-10-13T04:55:49;14.6;;;9.4;;
44126;SDS011;29786;50.798;7.302;2023-10-13T04:56:48;16.4;;;10;;
44126;SDS011;29786;50.798;7.302;2023-10-13T04:57:48;16.4;;;10;;
44126;SDS011;29786;50.798;7.302;2023-10-13T04:58:48;18.6;;;9.9;;
44126;SDS011;29786;50.798;7.302;2023-10-13T04:59:49;13.4;;;9.5;;
44126;SDS011;29786;50.798;7.302;2023-10-13T05:00:48;14.5;;;8.9;;
44126;SDS011;29786;50.798;7.302;2023-10-13T05:01:48;15.4;;;9.5;;
44126;SDS011;29786;50.798;7.302;2023-10-13T05:02:48;15.2;;;9.6;;
44126;SDS011;29786;50.798;7.302;2023-10-13T05:03:49;12.7;;;8.5;;
44126;SDS011;29786;50.798;7.302;2023-10-13T05:04:49;13.3;;;9.6;;
44126;SDS011;29786;50.798;7.302;2023-10-13T05:05:48;13.3;;;9.6;;
44126;SDS011;29786;50.798;7.302;2023-10-13T05:06:48;14.5;;;9.1;;
44126;SDS011;29786;50.798;7.302;2023-10-13T05:07:48;14.5;;;9.1;;
44126;SDS011;29786;50.798;7.302;2023-10-13T05:08:48;14.6;;;9.6;;
44126;SDS011;29786;50.798;7.302;2023-10-13T05:09:48;15;;;8.3;;
44126;SDS011;29786;50.798;7.302;2023-10-13T05:10:48;17.4;;;9.6;;
44126;SDS011;29786;50.798;7.302;2023-10-13T05:11:48;13.9;;;8.9;;
44126;SDS011;29786;50.798;7.302;2023-10-13T05:12:48;16.5;;;10;;
44126;SDS011;29786;50.798;7.302;2023-10-13T05:13:48;16.5;;;10;;
44126;SDS011;29786;50.798;7.302;2023-10-13T05:14:49;14.4;;;9.3;;
44126;SDS011;29786;50.798;7.302;2023-10-13T05:15:49;14.4;;;9.3;;
44126;SDS011;29786;50.798;7.302;2023-10-13T05:16:48;12.6;;;8.7;;
44126;SDS011;29786;50.798;7.302;2023-10-13T05:17:48;14.6;;;9.2;;
44126;SDS011;29786;50.798;7.302;2023-10-13T05:18:48;11.8;;;8;;
44126;SDS011;29786;50.798;7.302;2023-10-13T05:19:48;16.7;;;8.8;;
44126;SDS011;29786;50.798;7.302;2023-10-13T05:20:48;16;;;8.8;;
44126;SDS011;29786;50.798;7.302;2023-10-13T05:21:48;16;;;8.8;;
44126;SDS011;29786;50.798;7.302;2023-10-13T05:22:48;14.4;;;9.1;;
44126;SDS011;29786;50.798;7.302;2023-10-13T05:23:48;15.1;;;8.3;;
44126;SDS011;29786;50.798;7.302;2023-10-13T05:24:48;14;;;8.9;;
44126;SDS011;29786;50.798;7.302;2023-10-13T05:25:48;13.5;;;8.9;;
44126;SDS011;29786;50.798;7.302;2023-10-13T05:26:48;13.5;;;8.9;;
44126;SDS011;29786;50.798;7.302;2023-10-13T05:27:49;14.4;;;8.2;;
44126;SDS011;29786;50.798;7.302;2023-10-13T05:28:48;15;;;8.5;;
44126;SDS011;29786;50.798;7.302;2023-10-13T05:29:48;15;;;8.5;;
44126;SDS011;29786;50.798;7.302;2023-10-13T05:30:48;12.5;;;8.2;;
44126;SDS011;29786;50.798;7.302;2023-10-13T05:31:48;13;;;7.9;;
44126;SDS011;29786;50.798;7.302;2023-10-13T05:32:48;14.1;;;8.2;;
44126;SDS011;29786;50.798;7.302;2023-10-13T05:33:48;12.2;;;8.4;;
44126;SDS011;29786;50.798;7.302;2023-10-13T05:34:48;16.4;;;8.8;;
44126;SDS011;29786;50.798;7.302;2023-10-13T05:35:48;13.5;;;8.7;;
44126;SDS011;29786;50.798;7.302;2023-10-13T05:36:48;14;;;8.2;;
44126;SDS011;29786;50.798;7.302;2023-10-13T05:37:48;14;;;8.2;;
44126;SDS011;29786;50.798;7.302;2023-10-13T05:38:48;18;;;7.6;;
44126;SDS011;29786;50.798;7.302;2023-10-13T05:39:48;12.8;;;8.6;;
44126;SDS011;29786;50.798;7.302;2023-10-13T05:40:56;14.6;;;7.9;;
44126;SDS011;29786;50.798;7.302;2023-10-13T05:41:48;12.9;;;8.4;;
44126;SDS011;29786;50.798;7.302;2023-10-13T05:42:48;12.8;;;7.7;;
44126;SDS011;29786;50.798;7.302;2023-10-13T05:43:49;12.4;;;7.7;;
44126;SDS011;29786;50.798;7.302;2023-10-13T05:44:48;12.4;;;7.7;;
44126;SDS011;29786;50.798;7.302;2023-10-13T05:45:48;13.9;;;8.6;;
44126;SDS011;29786;50.798;7.302;2023-10-13T05:46:48;12.4;;;7.9;;
44126;SDS011;29786;50.798;7.302;2023-10-13T05:47:48;12.9;;;8;;
44126;SDS011;29786;50.798;7.302;2023-10-13T05:48:48;15.1;;;8.4;;
44126;SDS011;29786;50.798;7.302;2023-10-13T05:49:48;14.2;;;7.4;;
44126;SDS011;29786;50.798;7.302;2023-10-13T05:50:48;13.3;;;7.7;;
44126;SDS011;29786;50.798;7.302;2023-10-13T05:51:48;10.2;;;7.6;;
44126;SDS011;29786;50.798;7.302;2023-10-13T05:52:49;10.2;;;7.6;;
44126;SDS011;29786;50.798;7.302;2023-10-13T05:53:48;12.6;;;7.7;;
44126;SDS011;29786;50.798;7.302;2023-10-13T05:54:48;11.6;;;8.2;;
44126;SDS011;29786;50.798;7.302;2023-10-13T05:55:48;13.4;;;7.8;;
44126;SDS011;29786;50.798;7.302;2023-10-13T05:56:49;14.4;;;8.3;;
44126;SDS011;29786;50.798;7.302;2023-10-13T05:57:48;12.5;;;7.3;;
44126;SDS011;29786;50.798;7.302;2023-10-13T05:58:48;16;;;8.1;;
44126;SDS011;29786;50.798;7.302;2023-10-13T05:59:48;12.5;;;8;;
44126;SDS011;29786;50.798;7.302;2023-10-13T06:00:48;12.5;;;8;;
44126;SDS011;29786;50.798;7.302;2023-10-13T06:01:48;10.1;;;7.1;;
44126;SDS011;29786;50.798;7.302;2023-10-13T06:02:48;13.6;;;7.9;;
44126;SDS011;29786;50.798;7.302;2023-10-13T06:03:48;13.5;;;7.7;;
44126;SDS011;29786;50.798;7.302;2023-10-13T06:04:48;16.9;;;7.6;;
44126;SDS011;29786;50.798;7.302;2023-10-13T06:05:48;16.9;;;7.6;;
44126;SDS011;29786;50.798;7.302;2023-10-13T06:06:48;13.1;;;7.8;;
44126;SDS011;29786;50.798;7.302;2023-10-13T06:07:49;12.7;;;7.3;;
44126;SDS011;29786;50.798;7.302;2023-10-13T06:08:48;12.7;;;7.3;;
44126;SDS011;29786;50.798;7.302;2023-10-13T06:09:48;12.4;;;7.7;;
44126;SDS011;29786;50.798;7.302;2023-10-13T06:10:48;14.4;;;7.3;;
44126;SDS011;29786;50.798;7.302;2023-10-13T06:11:48;15.8;;;7.3;;
44126;SDS011;29786;50.798;7.302;2023-10-13T06:12:48;12.8;;;7.4;;